createdAt,value
2022-11-30T00:00:00.847Z,24.80
2022-11-30T00:03:05.106Z,25.90
2022-11-30T00:06:10.575Z,26.20
2022-11-30T00:09:14.436Z,24.10
2022-11-30T00:12:17.838Z,25.30
2022-11-30T00:15:21.330Z,25.40
2022-11-30T00:18:24.931Z,25.20
2022-11-30T00:21:28.207Z,24.00
2022-11-30T00:24:31.709Z,24.80
2022-11-30T00:27:35.845Z,24.00
2022-11-30T00:30:39.286Z,26.10
2022-11-30T00:33:43.047Z,26.50
2022-11-30T00:36:46.470Z,25.50
2022-11-30T00:39:49.953Z,25.70
2022-11-30T00:42:53.332Z,25.50
2022-11-30T00:45:56.621Z,26.30
2022-11-30T00:49:00.148Z,25.50
2022-11-30T00:52:04.702Z,24.90
2022-11-30T00:55:10.262Z,25.10
2022-11-30T00:58:14.135Z,25.70
2022-11-30T01:01:17.596Z,26.40
2022-11-30T01:04:21.749Z,25.60
2022-11-30T01:07:25.322Z,24.80
2022-11-30T01:10:29.232Z,24.40
2022-11-30T01:13:32.608Z,27.30
2022-11-30T01:16:36.042Z,26.80
2022-11-30T01:19:39.408Z,25.80
2022-11-30T01:22:42.789Z,25.50
2022-11-30T01:25:55.217Z,24.60
2022-11-30T01:28:58.664Z,25.70
2022-11-30T01:32:01.997Z,25.20
2022-11-30T01:35:06.534Z,23.50
2022-11-30T01:38:09.919Z,25.30
2022-11-30T01:41:15.093Z,25.40
2022-11-30T01:44:51.413Z,24.80
2022-11-30T01:47:57.103Z,24.10
2022-11-30T01:51:00.554Z,25.40
2022-11-30T01:54:06.839Z,25.00
2022-11-30T02:03:28.796Z,23.80
2022-11-30T02:06:32.757Z,24.40
2022-11-30T02:09:42.047Z,26.00
2022-11-30T02:13:05.526Z,24.20
2022-11-30T02:16:19.972Z,23.50
2022-11-30T02:20:05.367Z,24.40
2022-11-30T02:23:41.296Z,23.90
2022-11-30T02:26:58.645Z,22.00
2022-11-30T02:30:05.430Z,24.10
2022-11-30T02:33:13.511Z,25.10
2022-11-30T02:36:17.851Z,23.70
2022-11-30T02:39:22.275Z,24.20
2022-11-30T02:42:26.133Z,21.90
2022-11-30T02:45:34.449Z,23.20
2022-11-30T02:48:45.402Z,21.50
2022-11-30T02:51:50.303Z,22.00
2022-11-30T02:54:54.117Z,20.90
2022-11-30T02:57:57.517Z,22.00
2022-11-30T03:01:00.893Z,21.50
2022-11-30T03:04:04.552Z,21.90
2022-11-30T03:07:07.997Z,21.20
2022-11-30T03:10:12.250Z,21.10
2022-11-30T03:13:15.644Z,22.50
2022-11-30T03:16:18.975Z,22.60
2022-11-30T03:19:22.538Z,21.80
2022-11-30T03:22:26.224Z,20.60
2022-11-30T03:25:29.890Z,21.80
2022-11-30T03:28:33.241Z,22.00
2022-11-30T03:31:36.647Z,21.70
2022-11-30T03:34:40.353Z,21.10
2022-11-30T03:37:43.853Z,22.00
2022-11-30T03:40:47.357Z,23.20
2022-11-30T03:43:51.355Z,23.60
2022-11-30T03:46:54.846Z,22.00
2022-11-30T03:49:58.270Z,20.40
2022-11-30T03:53:01.640Z,20.00
2022-11-30T03:56:07.313Z,21.70
2022-11-30T03:59:10.764Z,20.90
2022-11-30T04:02:14.243Z,23.30
2022-11-30T04:05:17.823Z,22.40
2022-11-30T04:08:21.613Z,23.00
2022-11-30T04:11:24.958Z,21.30
2022-11-30T04:14:28.309Z,21.40
2022-11-30T04:17:31.549Z,21.40
2022-11-30T04:20:40.090Z,21.30
2022-11-30T04:23:43.914Z,21.40
2022-11-30T04:26:47.282Z,22.10
2022-11-30T04:29:51.359Z,22.10
2022-11-30T04:32:54.968Z,21.50
2022-11-30T04:36:00.118Z,21.40
2022-11-30T04:39:03.716Z,20.60
2022-11-30T04:42:07.385Z,19.40
2022-11-30T04:45:12.027Z,20.40
2022-11-30T04:48:16.298Z,20.30
2022-11-30T04:51:19.761Z,20.10
2022-11-30T04:54:23.158Z,21.30
2022-11-30T04:57:26.702Z,21.60
2022-11-30T05:00:30.271Z,21.50
2022-11-30T05:03:33.872Z,19.30
2022-11-30T05:06:37.373Z,17.60
2022-11-30T05:09:40.977Z,18.90
2022-11-30T05:12:44.778Z,19.20
2022-11-30T05:15:48.394Z,20.40
2022-11-30T05:18:51.977Z,20.10
2022-11-30T05:21:55.334Z,16.40
2022-11-30T05:24:58.895Z,18.80
2022-11-30T05:28:02.496Z,21.70
2022-11-30T05:31:07.002Z,21.10
2022-11-30T05:34:10.319Z,20.90
2022-11-30T05:37:13.821Z,22.30
2022-11-30T05:40:17.565Z,19.10
2022-11-30T05:43:20.901Z,19.50
2022-11-30T05:46:24.371Z,20.70
2022-11-30T05:49:27.765Z,19.60
2022-11-30T05:52:31.257Z,19.10
2022-11-30T05:55:34.669Z,20.60
2022-11-30T05:58:38.382Z,20.40
2022-11-30T06:01:41.974Z,19.60
2022-11-30T06:04:45.791Z,20.80
2022-11-30T06:07:49.588Z,19.20
2022-11-30T06:10:53.255Z,19.00
2022-11-30T06:13:56.574Z,20.90
2022-11-30T06:17:00.465Z,19.90
2022-11-30T06:20:03.978Z,20.40
2022-11-30T06:23:07.876Z,21.80
2022-11-30T06:26:12.348Z,22.80
2022-11-30T06:29:15.757Z,22.50
2022-11-30T06:32:19.095Z,20.30
2022-11-30T06:35:22.508Z,22.10
2022-11-30T06:38:25.874Z,21.00
2022-11-30T06:41:29.294Z,21.20
2022-11-30T06:44:32.805Z,19.40
2022-11-30T06:47:36.392Z,19.20
2022-11-30T06:50:43.248Z,18.60
2022-11-30T06:53:50.449Z,19.40
2022-11-30T06:56:54.011Z,20.90
2022-11-30T06:59:57.847Z,20.60
2022-11-30T07:03:01.585Z,19.90
2022-11-30T07:06:10.531Z,19.30
2022-11-30T07:09:14.009Z,18.00
2022-11-30T07:12:17.565Z,19.70
2022-11-30T07:15:20.911Z,18.40
2022-11-30T07:18:30.145Z,17.70
2022-11-30T07:21:35.395Z,19.80
2022-11-30T07:24:56.804Z,16.80
2022-11-30T07:28:00.199Z,17.00
2022-11-30T07:31:16.182Z,17.10
2022-11-30T07:34:20.628Z,17.30
2022-11-30T07:37:24.288Z,18.80
2022-11-30T07:40:27.736Z,19.10
2022-11-30T07:43:31.372Z,17.90
2022-11-30T07:46:35.654Z,16.80
2022-11-30T07:49:39.367Z,17.40
2022-11-30T07:52:42.868Z,17.40
2022-11-30T07:55:46.450Z,15.60
2022-11-30T07:58:51.004Z,16.20
2022-11-30T08:01:54.524Z,17.30
2022-11-30T08:04:58.158Z,18.00
2022-11-30T08:08:01.610Z,18.90
2022-11-30T08:11:06.034Z,16.80
2022-11-30T08:14:11.679Z,18.90
2022-11-30T08:17:15.329Z,16.10
2022-11-30T08:20:19.218Z,17.80
2022-11-30T08:23:22.645Z,15.70
2022-11-30T08:26:28.212Z,15.90
2022-11-30T08:29:31.875Z,14.60
2022-11-30T08:32:35.242Z,17.20
2022-11-30T08:35:38.622Z,15.90
2022-11-30T08:38:43.273Z,17.10
2022-11-30T08:41:46.633Z,18.30
2022-11-30T08:44:50.075Z,16.40
2022-11-30T08:47:55.108Z,17.80
2022-11-30T08:51:01.116Z,16.20
2022-11-30T08:54:04.674Z,17.70
2022-11-30T08:57:08.275Z,16.90
2022-11-30T09:00:13.703Z,16.90
2022-11-30T09:03:17.118Z,18.00
2022-11-30T09:06:22.094Z,17.40
2022-11-30T09:09:25.601Z,15.40
2022-11-30T09:12:29.037Z,16.90
2022-11-30T09:15:33.038Z,16.60
2022-11-30T09:18:36.674Z,14.50
2022-11-30T09:21:40.070Z,16.40
2022-11-30T09:24:43.467Z,18.30
2022-11-30T09:27:46.872Z,19.10
2022-11-30T09:30:50.405Z,19.30
2022-11-30T09:33:55.712Z,18.10
2022-11-30T09:36:59.220Z,17.00
2022-11-30T09:40:02.618Z,19.00
2022-11-30T09:43:15.953Z,16.60
2022-11-30T09:46:24.505Z,20.10
2022-11-30T09:49:30.219Z,19.10
2022-11-30T09:52:37.200Z,17.40
2022-11-30T09:55:43.277Z,18.80
2022-11-30T09:58:50.644Z,18.50
2022-11-30T10:01:57.217Z,17.80
2022-11-30T10:05:01.689Z,17.60
2022-11-30T10:08:19.597Z,17.90
2022-11-30T10:11:49.873Z,18.00
2022-11-30T10:15:24.340Z,17.90
2022-11-30T10:18:37.479Z,17.80
2022-11-30T10:21:55.525Z,16.80
2022-11-30T10:25:13.355Z,16.60
2022-11-30T10:28:46.472Z,17.70
2022-11-30T10:31:50.982Z,14.90
2022-11-30T10:35:01.853Z,16.30
2022-11-30T10:38:12.215Z,15.20
2022-11-30T10:41:19.244Z,15.80
2022-11-30T10:44:27.718Z,16.70
2022-11-30T10:47:36.346Z,16.20
2022-11-30T10:50:41.917Z,15.50
2022-11-30T10:53:45.405Z,16.50
2022-11-30T10:56:49.207Z,16.50
2022-11-30T10:59:54.865Z,16.10
2022-11-30T11:02:58.752Z,16.10
2022-11-30T11:06:21.883Z,16.00
2022-11-30T11:09:33.832Z,17.10
2022-11-30T11:12:38.020Z,17.50
2022-11-30T11:15:55.751Z,17.10
2022-11-30T11:18:59.377Z,16.30
2022-11-30T11:22:05.260Z,16.30
2022-11-30T11:25:20.718Z,15.50
2022-11-30T11:28:25.076Z,15.40
2022-11-30T11:31:36.132Z,16.10
2022-11-30T11:34:39.923Z,14.00
2022-11-30T11:37:52.074Z,15.60
2022-11-30T11:41:01.070Z,24.50
2022-11-30T11:44:16.029Z,16.40
2022-11-30T11:47:25.949Z,16.10
2022-11-30T11:51:04.949Z,15.30
2022-11-30T11:57:00.261Z,15.60
2022-11-30T12:00:16.113Z,15.90
2022-11-30T12:03:31.548Z,16.00
2022-11-30T12:06:36.168Z,15.20
2022-11-30T12:09:47.321Z,17.70
2022-11-30T12:12:54.756Z,17.30
2022-11-30T12:16:14.623Z,18.10
2022-11-30T12:19:22.599Z,16.40
2022-11-30T12:22:48.327Z,18.10
2022-11-30T12:26:01.005Z,19.70
2022-11-30T12:29:20.275Z,17.60
2022-11-30T12:32:37.635Z,17.40
2022-11-30T12:36:01.478Z,22.30
2022-11-30T12:39:14.669Z,23.50
2022-11-30T12:42:24.677Z,21.40
2022-11-30T12:45:34.865Z,25.50
2022-11-30T12:48:47.880Z,23.00
2022-11-30T12:52:02.651Z,21.30
2022-11-30T12:55:17.210Z,21.70
2022-11-30T12:58:27.455Z,21.60
2022-11-30T13:01:48.532Z,21.00
2022-11-30T13:04:59.811Z,21.30
2022-11-30T13:08:12.382Z,22.50
2022-11-30T13:11:19.801Z,20.40
2022-11-30T13:14:24.504Z,20.70
2022-11-30T13:17:30.574Z,20.70
2022-11-30T13:20:41.408Z,21.20
2022-11-30T13:23:54.662Z,21.10
2022-11-30T13:27:01.861Z,19.40
2022-11-30T13:30:24.284Z,20.10
2022-11-30T13:33:48.004Z,23.50
2022-11-30T13:36:52.164Z,21.60
2022-11-30T13:39:56.921Z,21.00
2022-11-30T13:43:00.449Z,21.70
2022-11-30T13:46:07.067Z,22.10
2022-11-30T13:49:22.058Z,21.00
2022-11-30T13:52:57.042Z,20.50
2022-11-30T13:56:02.905Z,24.30
2022-11-30T13:59:35.841Z,22.10
2022-11-30T14:03:13.254Z,20.70
2022-11-30T14:06:47.955Z,23.80
2022-11-30T14:10:22.315Z,20.20
2022-11-30T14:13:31.404Z,19.20
2022-11-30T14:16:35.080Z,19.60
2022-11-30T14:19:38.624Z,20.40
2022-11-30T14:22:43.580Z,18.40
2022-11-30T14:25:49.148Z,19.00
2022-11-30T14:28:58.572Z,19.70
2022-11-30T14:32:08.424Z,20.80
2022-11-30T14:35:15.584Z,21.00
2022-11-30T14:38:24.965Z,20.70
2022-11-30T14:41:30.327Z,19.70
2022-11-30T14:44:40.145Z,19.30
2022-11-30T14:47:47.958Z,17.50
2022-11-30T14:50:53.217Z,20.70
2022-11-30T14:54:06.420Z,25.30
2022-11-30T14:57:21.037Z,23.10
2022-11-30T15:00:24.874Z,19.60
2022-11-30T15:03:31.231Z,21.40
2022-11-30T15:06:39.976Z,21.00
2022-11-30T15:12:47.416Z,22.40
2022-11-30T15:15:55.409Z,23.80
2022-11-30T15:18:59.825Z,24.50
2022-11-30T15:22:03.333Z,29.40
2022-11-30T15:25:11.946Z,29.90
2022-11-30T15:28:19.691Z,25.40
2022-11-30T15:31:24.132Z,21.10
2022-11-30T15:34:37.130Z,21.00
2022-11-30T15:37:41.673Z,27.60
2022-11-30T15:40:53.050Z,24.90
2022-11-30T15:43:58.037Z,24.80
2022-11-30T15:47:03.321Z,76.80
2022-11-30T15:50:34.702Z,81.20
2022-11-30T15:53:50.243Z,29.00
2022-11-30T15:56:57.921Z,29.30
2022-11-30T16:00:07.784Z,29.10
2022-11-30T16:03:13.058Z,20.40
2022-11-30T16:06:19.178Z,73.40
2022-11-30T16:09:26.054Z,45.10
2022-11-30T16:12:30.156Z,50.90
2022-11-30T16:15:35.422Z,75.20
2022-11-30T16:18:38.920Z,21.60
2022-11-30T16:21:42.789Z,27.60
2022-11-30T16:24:46.230Z,20.90
2022-11-30T16:27:50.084Z,23.90
2022-11-30T16:30:55.788Z,21.60
2022-11-30T16:33:59.397Z,22.30
2022-11-30T16:37:04.370Z,20.90
2022-11-30T16:40:10.165Z,27.80
2022-11-30T16:43:13.885Z,20.80
2022-11-30T16:46:19.079Z,22.30
2022-11-30T16:49:22.533Z,21.30
2022-11-30T16:52:25.973Z,22.40
2022-11-30T16:55:34.246Z,26.80
2022-11-30T16:58:37.747Z,22.30
2022-11-30T17:01:43.223Z,20.40
2022-11-30T17:04:47.127Z,22.40
2022-11-30T17:07:50.761Z,23.80
2022-11-30T17:10:55.073Z,22.70
2022-11-30T17:13:59.006Z,23.50
2022-11-30T17:17:02.505Z,21.10
2022-11-30T17:20:08.369Z,22.00
2022-11-30T17:23:11.668Z,22.30
2022-11-30T17:26:15.101Z,23.10
2022-11-30T17:29:18.596Z,28.80
2022-11-30T17:32:22.009Z,47.40
2022-11-30T17:35:25.389Z,48.60
2022-11-30T17:38:28.873Z,22.10
2022-11-30T17:41:32.218Z,20.60
2022-11-30T17:44:35.796Z,19.90
2022-11-30T17:47:39.549Z,20.20
2022-11-30T17:50:43.208Z,19.50
2022-11-30T17:53:46.790Z,21.10
2022-11-30T17:56:52.169Z,22.20
2022-11-30T17:59:56.785Z,17.30
2022-11-30T18:03:00.341Z,23.50
2022-11-30T18:06:04.144Z,24.10
2022-11-30T18:09:07.739Z,25.00
2022-11-30T18:12:12.065Z,22.90
2022-11-30T18:15:15.726Z,22.70
2022-11-30T18:18:19.020Z,22.20
2022-11-30T18:21:23.992Z,21.30
2022-11-30T18:24:27.507Z,20.80
2022-11-30T18:27:30.856Z,21.30
2022-11-30T18:30:36.627Z,22.30
2022-11-30T18:33:40.460Z,21.90
2022-11-30T18:36:44.021Z,20.50
2022-11-30T18:39:47.401Z,24.50
2022-11-30T18:42:50.814Z,24.70
2022-11-30T18:46:01.416Z,26.10
2022-11-30T18:49:06.319Z,24.70
2022-11-30T18:52:09.865Z,23.90
2022-11-30T18:55:13.426Z,25.20
2022-11-30T18:58:16.825Z,34.60
2022-11-30T19:01:21.048Z,22.60
2022-11-30T19:04:25.743Z,21.90
2022-11-30T19:07:29.326Z,19.80
2022-11-30T19:10:34.795Z,19.10
2022-11-30T19:13:38.220Z,19.80
2022-11-30T19:16:41.986Z,17.60
2022-11-30T19:19:45.636Z,20.00
2022-11-30T19:22:49.133Z,18.70
2022-11-30T19:25:53.047Z,20.20
2022-11-30T19:28:57.542Z,19.40
2022-11-30T19:32:01.075Z,21.30
2022-11-30T19:35:05.798Z,21.40
2022-11-30T19:38:09.195Z,21.50
2022-11-30T19:41:13.936Z,21.60
2022-11-30T19:44:17.816Z,22.90
2022-11-30T19:47:21.113Z,20.30
2022-11-30T19:50:25.337Z,19.80
2022-11-30T19:53:29.791Z,21.40
2022-11-30T19:56:35.099Z,20.40
2022-11-30T19:59:38.569Z,20.20
2022-11-30T20:02:42.153Z,19.60
2022-11-30T20:05:49.696Z,19.00
2022-11-30T20:08:53.123Z,19.90
2022-11-30T20:11:56.617Z,18.10
2022-11-30T20:15:00.068Z,20.60
2022-11-30T20:18:03.691Z,19.30
2022-11-30T20:21:15.401Z,19.00
2022-11-30T20:24:18.761Z,20.30
2022-11-30T20:27:24.174Z,20.00
2022-11-30T20:30:28.035Z,18.90
2022-11-30T20:33:31.562Z,18.70
2022-11-30T20:36:35.386Z,20.40
2022-11-30T20:39:45.526Z,19.70
2022-11-30T20:42:50.635Z,19.30
2022-11-30T20:45:54.197Z,22.40
2022-11-30T20:48:58.433Z,22.30
2022-11-30T20:52:01.847Z,19.60
2022-11-30T20:55:06.630Z,20.10
2022-11-30T20:58:10.135Z,19.20
2022-11-30T21:01:15.033Z,20.40
2022-11-30T21:04:18.780Z,17.70
2022-11-30T21:07:22.202Z,18.20
2022-11-30T21:10:25.778Z,19.10
2022-11-30T21:13:29.381Z,18.90
2022-11-30T21:16:33.611Z,19.70
2022-11-30T21:19:37.153Z,28.40
2022-11-30T21:22:40.493Z,24.40
2022-11-30T21:25:45.226Z,22.50
2022-11-30T21:28:52.206Z,21.90
2022-11-30T21:31:55.675Z,24.10
2022-11-30T21:34:59.074Z,26.90
2022-11-30T21:38:02.456Z,27.00
2022-11-30T21:41:06.469Z,26.80
2022-11-30T21:44:12.758Z,27.60
2022-11-30T21:50:22.991Z,24.50
2022-11-30T21:53:30.044Z,23.70
2022-11-30T21:56:35.547Z,24.10
2022-11-30T21:59:39.003Z,26.60
2022-11-30T22:02:42.520Z,26.60
2022-11-30T22:05:45.900Z,25.60
2022-11-30T22:08:49.778Z,24.90
2022-11-30T22:11:54.961Z,24.90
2022-11-30T22:14:58.336Z,24.60
2022-11-30T22:18:01.645Z,25.10
2022-11-30T22:21:08.442Z,26.00
2022-11-30T22:24:13.269Z,24.30
2022-11-30T22:27:16.701Z,25.20
2022-11-30T22:30:20.366Z,24.90
2022-11-30T22:33:23.871Z,23.80
2022-11-30T22:36:28.636Z,26.40
2022-11-30T22:39:31.974Z,23.80
2022-11-30T22:42:37.145Z,24.60
2022-11-30T22:45:40.566Z,23.50
2022-11-30T22:48:44.689Z,23.90
2022-11-30T22:51:48.152Z,24.70
2022-11-30T22:54:51.782Z,24.00
2022-11-30T22:57:55.251Z,25.20
2022-11-30T23:00:59.335Z,25.10
2022-11-30T23:04:04.764Z,25.20
2022-11-30T23:07:07.534Z,24.70
2022-11-30T23:10:12.337Z,26.20
2022-11-30T23:13:14.992Z,27.60
2022-11-30T23:16:18.847Z,26.70
2022-11-30T23:19:21.527Z,27.50
2022-11-30T23:22:24.196Z,29.20
2022-11-30T23:25:26.859Z,29.30
2022-11-30T23:28:29.492Z,29.50
2022-11-30T23:31:35.611Z,29.00
2022-11-30T23:34:39.141Z,28.90
2022-11-30T23:37:41.795Z,33.00
2022-11-30T23:40:44.429Z,33.50
2022-11-30T23:43:47.086Z,29.40
2022-11-30T23:46:49.992Z,31.80
2022-11-30T23:49:52.784Z,32.80
2022-11-30T23:52:55.603Z,32.70
2022-11-30T23:56:02.750Z,32.90
2022-11-30T23:59:05.616Z,32.00
